createdAt,value
2022-08-05T00:04:00.930Z,7.25
2022-08-05T00:08:57.935Z,5.85
2022-08-05T00:13:54.527Z,5.25
2022-08-05T00:18:51.498Z,4.75
2022-08-05T00:23:53.295Z,4.38
2022-08-05T00:29:01.720Z,4.45
2022-08-05T00:34:53.219Z,3.67
2022-08-05T00:39:15.618Z,4.03
2022-08-05T00:44:12.217Z,3.05
2022-08-05T00:49:08.875Z,3.13
2022-08-05T00:54:12.743Z,2.60
2022-08-05T00:59:09.415Z,2.58
2022-08-05T01:04:13.854Z,2.92
2022-08-05T01:09:11.319Z,1.92
2022-08-05T01:14:35.401Z,2.13
2022-08-05T01:20:01.568Z,1.90
2022-08-05T01:25:06.951Z,2.00
2022-08-05T01:30:04.818Z,2.08
2022-08-05T01:35:51.342Z,1.85
2022-08-05T01:40:35.028Z,1.70
2022-08-05T01:45:34.949Z,1.70
2022-08-05T01:50:40.591Z,1.90
2022-08-05T01:55:48.589Z,1.83
2022-08-05T02:00:49.737Z,1.70
2022-08-05T02:05:46.877Z,2.20
2022-08-05T02:10:49.501Z,2.15
2022-08-05T02:15:55.811Z,1.33
2022-08-05T02:20:59.756Z,1.50
2022-08-05T02:25:57.760Z,1.65
2022-08-05T02:30:59.435Z,1.65
2022-08-05T02:36:00.683Z,1.85
2022-08-05T02:40:58.652Z,1.80
2022-08-05T02:45:55.524Z,1.70
2022-08-05T02:51:06.274Z,2.58
2022-08-05T02:56:06.280Z,2.13
2022-08-05T03:01:03.679Z,1.85
2022-08-05T03:06:55.754Z,2.13
2022-08-05T03:11:57.042Z,2.05
2022-08-05T03:16:41.100Z,2.00
2022-08-05T03:21:41.662Z,2.45
2022-08-05T03:26:49.411Z,2.28
2022-08-05T03:31:56.509Z,2.50
2022-08-05T03:36:54.470Z,2.28
2022-08-05T03:41:52.662Z,2.45
2022-08-05T03:46:52.872Z,2.03
2022-08-05T03:52:38.456Z,2.35
2022-08-05T03:57:19.081Z,2.25
2022-08-05T04:02:38.934Z,2.30
2022-08-05T04:07:34.445Z,2.20
2022-08-05T04:12:51.781Z,2.67
2022-08-05T04:17:56.104Z,3.00
2022-08-05T04:22:54.245Z,2.30
2022-08-05T04:27:57.231Z,2.88
2022-08-05T04:32:56.896Z,2.83
2022-08-05T04:38:01.104Z,3.03
2022-08-05T04:43:02.344Z,2.75
2022-08-05T04:48:10.253Z,2.97
2022-08-05T04:53:17.135Z,2.83
2022-08-05T04:58:15.293Z,3.15
2022-08-05T05:03:18.809Z,3.05
2022-08-05T05:08:26.758Z,2.92
2022-08-05T05:13:32.376Z,3.13
2022-08-05T05:18:48.532Z,3.22
2022-08-05T05:24:02.767Z,3.77
2022-08-05T05:29:02.152Z,3.15
2022-08-05T05:34:02.047Z,2.78
2022-08-05T05:38:59.837Z,3.38
2022-08-05T05:44:00.234Z,3.13
2022-08-05T05:48:57.383Z,3.63
2022-08-05T05:53:59.755Z,2.92
2022-08-05T05:58:56.575Z,2.83
2022-08-05T06:04:01.880Z,3.42
2022-08-05T06:09:00.389Z,3.20
2022-08-05T06:13:57.402Z,3.00
2022-08-05T06:18:53.939Z,3.13
2022-08-05T06:23:50.528Z,2.95
2022-08-05T06:28:47.228Z,3.40
2022-08-05T06:34:07.970Z,3.35
2022-08-05T06:39:01.083Z,3.07
2022-08-05T06:44:00.624Z,3.35
2022-08-05T06:48:59.250Z,3.67
2022-08-05T06:53:58.190Z,3.10
2022-08-05T06:58:55.908Z,3.17
2022-08-05T07:03:52.624Z,2.70
2022-08-05T07:08:54.726Z,3.10
2022-08-05T07:14:20.276Z,2.80
2022-08-05T07:20:10.643Z,2.60
2022-08-05T07:30:22.375Z,2.50
2022-08-05T07:36:04.263Z,2.70
2022-08-05T07:40:32.114Z,2.95
2022-08-05T07:45:56.444Z,2.72
2022-08-05T07:50:46.542Z,2.28
2022-08-05T07:56:05.616Z,2.58
2022-08-05T08:00:59.997Z,2.28
2022-08-05T08:05:57.028Z,2.88
2022-08-05T08:10:56.784Z,2.90
2022-08-05T08:16:34.856Z,2.80
2022-08-05T08:21:17.761Z,2.60
2022-08-05T08:26:14.593Z,2.55
2022-08-05T08:31:17.363Z,2.83
2022-08-05T08:36:46.340Z,2.92
2022-08-05T08:41:51.360Z,3.10
2022-08-05T08:46:51.958Z,2.55
2022-08-05T08:52:03.525Z,2.70
2022-08-05T08:57:03.463Z,2.58
2022-08-05T09:02:02.183Z,2.55
2022-08-05T09:06:58.937Z,2.15
2022-08-05T09:11:57.782Z,2.42
2022-08-05T09:17:40.486Z,2.20
2022-08-05T09:23:07.787Z,2.60
2022-08-05T09:28:21.142Z,2.25
2022-08-05T09:33:18.082Z,2.65
2022-08-05T09:38:27.447Z,2.10
2022-08-05T09:43:41.619Z,2.10
2022-08-05T09:48:38.586Z,1.95
2022-08-05T09:53:59.107Z,2.30
2022-08-05T09:59:04.081Z,2.05
2022-08-05T10:04:11.036Z,1.80
2022-08-05T10:09:27.852Z,2.00
2022-08-05T10:14:30.264Z,2.05
2022-08-05T10:20:04.058Z,1.70
2022-08-05T10:24:46.786Z,1.98
2022-08-05T10:30:06.854Z,1.90
2022-08-05T10:35:04.547Z,1.80
2022-08-05T10:40:17.598Z,2.17
2022-08-05T10:45:23.375Z,2.03
2022-08-05T10:50:36.195Z,1.85
2022-08-05T11:00:55.190Z,1.63
2022-08-05T11:06:06.402Z,1.83
2022-08-05T11:11:44.676Z,1.58
2022-08-05T11:17:59.485Z,2.30
2022-08-05T11:22:49.685Z,2.22
2022-08-05T11:27:51.790Z,1.40
2022-08-05T11:33:43.875Z,1.30
2022-08-05T11:38:45.908Z,1.13
2022-08-05T11:44:06.730Z,1.20
2022-08-05T11:49:12.317Z,1.02
2022-08-05T11:54:11.749Z,1.45
2022-08-05T11:59:16.835Z,1.17
2022-08-05T12:04:18.047Z,1.25
2022-08-05T12:09:20.728Z,1.00
2022-08-05T12:14:39.198Z,1.50
2022-08-05T12:20:16.861Z,1.40
2022-08-05T12:25:14.224Z,1.27
2022-08-05T12:30:15.514Z,1.70
2022-08-05T12:35:16.827Z,2.10
2022-08-05T12:40:26.387Z,2.38
2022-08-05T12:45:23.370Z,2.78
2022-08-05T12:50:39.459Z,2.50
2022-08-05T12:55:37.164Z,3.10
2022-08-05T13:02:03.363Z,2.20
2022-08-05T13:05:53.600Z,1.67
2022-08-05T13:10:50.828Z,1.50
2022-08-05T13:15:51.229Z,1.80
2022-08-05T13:20:49.896Z,2.00
2022-08-05T13:25:52.543Z,1.58
2022-08-05T13:30:57.251Z,1.88
2022-08-05T13:35:55.167Z,1.80
2022-08-05T13:41:00.205Z,1.30
2022-08-05T13:45:57.200Z,1.27
2022-08-05T13:50:57.113Z,1.50
2022-08-05T13:55:57.656Z,1.00
2022-08-05T14:00:58.762Z,1.27
2022-08-05T14:06:24.891Z,1.10
2022-08-05T14:11:20.529Z,1.23
2022-08-05T14:16:19.264Z,1.67
2022-08-05T14:22:09.278Z,1.20
2022-08-05T14:26:35.777Z,1.55
2022-08-05T14:32:02.436Z,1.20
2022-08-05T14:36:55.830Z,1.48
2022-08-05T14:42:15.947Z,1.50
2022-08-05T14:47:09.165Z,1.40
2022-08-05T14:52:05.969Z,1.70
2022-08-05T14:57:09.802Z,1.40
2022-08-05T15:02:15.920Z,1.27
2022-08-05T15:08:11.379Z,1.20
2022-08-05T15:12:59.744Z,1.50
2022-08-05T15:22:55.133Z,1.90
2022-08-05T15:27:54.800Z,2.00
2022-08-05T15:32:51.586Z,1.58
2022-08-05T15:38:32.353Z,1.30
2022-08-05T15:43:09.337Z,1.77
2022-08-05T15:48:09.916Z,2.83
2022-08-05T15:53:12.710Z,1.40
2022-08-05T15:58:16.432Z,1.70
2022-08-05T16:03:13.700Z,1.10
2022-08-05T16:08:11.452Z,1.40
2022-08-05T16:13:12.696Z,1.17
2022-08-05T16:18:20.081Z,1.52
2022-08-05T16:23:24.710Z,1.33
2022-08-05T16:28:21.247Z,1.02
2022-08-05T16:33:20.932Z,1.25
2022-08-05T16:38:25.709Z,1.10
2022-08-05T16:43:26.474Z,1.30
2022-08-05T16:48:25.438Z,1.15
2022-08-05T16:53:32.061Z,0.70
2022-08-05T16:58:29.518Z,0.70
2022-08-05T17:03:26.503Z,1.55
2022-08-05T17:08:35.903Z,1.70
2022-08-05T17:13:37.530Z,1.25
2022-08-05T17:18:37.996Z,1.10
2022-08-05T17:24:04.710Z,0.95
2022-08-05T17:28:52.317Z,0.90
2022-08-05T17:33:50.826Z,0.82
2022-08-05T17:38:48.056Z,1.30
2022-08-05T17:43:50.596Z,1.55
2022-08-05T17:48:50.086Z,1.33
2022-08-05T17:53:54.470Z,0.70
2022-08-05T17:58:51.515Z,0.93
2022-08-05T18:04:03.816Z,0.95
2022-08-05T18:09:03.800Z,1.08
2022-08-05T18:14:13.597Z,1.33
2022-08-05T18:19:16.958Z,1.77
2022-08-05T18:24:14.463Z,1.25
2022-08-05T18:29:11.153Z,1.15
2022-08-05T18:34:12.202Z,1.35
2022-08-05T18:39:22.357Z,1.30
2022-08-05T18:44:34.978Z,0.87
2022-08-05T18:50:02.800Z,0.93
2022-08-05T18:54:59.848Z,1.65
2022-08-05T19:00:02.194Z,0.82
2022-08-05T19:06:05.722Z,0.60
2022-08-05T19:10:28.162Z,0.80
2022-08-05T19:20:46.958Z,1.20
2022-08-05T19:25:43.794Z,0.82
2022-08-05T19:30:44.718Z,1.00
2022-08-05T19:35:56.540Z,1.10
2022-08-05T19:40:54.302Z,0.98
2022-08-05T19:45:54.554Z,0.95
2022-08-05T19:50:52.757Z,1.80
2022-08-05T19:56:15.292Z,0.90
2022-08-05T20:01:06.764Z,0.93
2022-08-05T20:06:15.610Z,0.85
2022-08-05T20:11:21.772Z,0.77
2022-08-05T20:16:19.541Z,0.98
2022-08-05T20:21:22.951Z,0.70
2022-08-05T20:26:21.110Z,0.90
2022-08-05T20:31:21.791Z,0.80
2022-08-05T20:36:20.765Z,0.80
2022-08-05T20:41:23.935Z,1.00
2022-08-05T20:46:24.922Z,0.82
2022-08-05T20:51:22.166Z,1.10
2022-08-05T20:56:18.730Z,0.73
2022-08-05T21:06:35.464Z,0.70
2022-08-05T21:12:09.533Z,1.00
2022-08-05T21:16:48.931Z,0.80
2022-08-05T21:21:50.963Z,0.90
2022-08-05T21:26:58.393Z,1.02
2022-08-05T21:31:55.681Z,0.80
2022-08-05T21:36:52.815Z,0.90
2022-08-05T21:41:52.765Z,0.82
2022-08-05T21:46:58.259Z,0.88
2022-08-05T21:52:15.821Z,1.00
2022-08-05T22:02:28.490Z,1.73
2022-08-05T22:07:39.741Z,0.90
2022-08-05T22:12:45.033Z,0.90
2022-08-05T22:17:56.376Z,0.80
2022-08-05T22:23:17.135Z,1.20
2022-08-05T22:28:18.327Z,0.88
2022-08-05T22:33:15.778Z,0.90
2022-08-05T22:38:12.707Z,1.13
2022-08-05T22:43:09.314Z,0.90
2022-08-05T22:48:09.814Z,1.35
2022-08-05T22:53:09.767Z,0.90
2022-08-05T22:58:06.568Z,0.73
2022-08-05T23:03:08.284Z,0.85
2022-08-05T23:08:10.461Z,0.80
2022-08-05T23:13:08.053Z,0.75
2022-08-05T23:18:05.905Z,0.73
2022-08-05T23:23:09.026Z,0.77
2022-08-05T23:28:07.007Z,0.80
2022-08-05T23:33:04.230Z,0.80
2022-08-05T23:38:00.961Z,1.00
2022-08-05T23:42:57.532Z,0.90
2022-08-05T23:47:59.339Z,1.85
2022-08-05T23:52:56.237Z,0.90
2022-08-05T23:57:55.211Z,1.00
